sensor_id;sensor_type;location;lat;lon;timestamp;P1;durP1;ratioP1;P2;durP2;ratioP2
30398;SDS011;17195;50.838;7.214;2023-06-24T00:00:39;6.85;;;5.85;;
30398;SDS011;17195;50.838;7.214;2023-06-24T00:03:04;7.57;;;5.57;;
30398;SDS011;17195;50.838;7.214;2023-06-24T00:05:32;7.22;;;6.07;;
30398;SDS011;17195;50.838;7.214;2023-06-24T00:07:58;6.72;;;6.05;;
30398;SDS011;17195;50.838;7.214;2023-06-24T00:10:27;6.68;;;5.93;;
30398;SDS011;17195;50.838;7.214;2023-06-24T00:12:54;6.40;;;5.78;;
30398;SDS011;17195;50.838;7.214;2023-06-24T00:15:19;8.57;;;6.65;;
30398;SDS011;17195;50.838;7.214;2023-06-24T00:17:45;6.55;;;5.93;;
30398;SDS011;17195;50.838;7.214;2023-06-24T00:20:10;9.98;;;6.47;;
30398;SDS011;17195;50.838;7.214;2023-06-24T00:22:39;6.63;;;5.95;;
30398;SDS011;17195;50.838;7.214;2023-06-24T00:25:09;7.22;;;6.40;;
30398;SDS011;17195;50.838;7.214;2023-06-24T00:27:35;6.45;;;5.85;;
30398;SDS011;17195;50.838;7.214;2023-06-24T00:30:00;6.63;;;5.95;;
30398;SDS011;17195;50.838;7.214;2023-06-24T00:32:26;7.88;;;6.00;;
30398;SDS011;17195;50.838;7.214;2023-06-24T00:34:51;6.32;;;5.72;;
30398;SDS011;17195;50.838;7.214;2023-06-24T00:37:17;6.80;;;6.10;;
30398;SDS011;17195;50.838;7.214;2023-06-24T00:39:42;8.30;;;6.30;;
30398;SDS011;17195;50.838;7.214;2023-06-24T00:42:08;7.72;;;6.25;;
30398;SDS011;17195;50.838;7.214;2023-06-24T00:44:34;7.53;;;5.97;;
30398;SDS011;17195;50.838;7.214;2023-06-24T00:47:02;6.90;;;6.13;;
30398;SDS011;17195;50.838;7.214;2023-06-24T00:49:28;6.20;;;5.70;;
30398;SDS011;17195;50.838;7.214;2023-06-24T00:51:53;8.88;;;6.20;;
30398;SDS011;17195;50.838;7.214;2023-06-24T00:54:20;7.90;;;6.15;;
30398;SDS011;17195;50.838;7.214;2023-06-24T00:56:46;7.38;;;6.07;;
30398;SDS011;17195;50.838;7.214;2023-06-24T00:59:13;7.53;;;6.57;;
30398;SDS011;17195;50.838;7.214;2023-06-24T01:01:41;7.65;;;5.97;;
30398;SDS011;17195;50.838;7.214;2023-06-24T01:04:08;7.30;;;5.70;;
30398;SDS011;17195;50.838;7.214;2023-06-24T01:06:35;7.53;;;5.75;;
30398;SDS011;17195;50.838;7.214;2023-06-24T01:09:01;9.15;;;6.47;;
30398;SDS011;17195;50.838;7.214;2023-06-24T01:11:27;6.68;;;6.03;;
30398;SDS011;17195;50.838;7.214;2023-06-24T01:13:57;7.60;;;6.68;;
30398;SDS011;17195;50.838;7.214;2023-06-24T01:18:57;6.97;;;6.32;;
30398;SDS011;17195;50.838;7.214;2023-06-24T01:26:56;8.73;;;7.57;;
30398;SDS011;17195;50.838;7.214;2023-06-24T01:30:03;8.43;;;7.60;;
30398;SDS011;17195;50.838;7.214;2023-06-24T01:32:53;12.45;;;7.68;;
30398;SDS011;17195;50.838;7.214;2023-06-24T01:35:21;9.32;;;7.18;;
30398;SDS011;17195;50.838;7.214;2023-06-24T01:37:51;9.23;;;7.45;;
30398;SDS011;17195;50.838;7.214;2023-06-24T01:40:29;8.30;;;6.78;;
30398;SDS011;17195;50.838;7.214;2023-06-24T01:42:59;9.02;;;6.97;;
30398;SDS011;17195;50.838;7.214;2023-06-24T01:45:28;8.60;;;6.30;;
30398;SDS011;17195;50.838;7.214;2023-06-24T01:48:02;10.30;;;7.30;;
30398;SDS011;17195;50.838;7.214;2023-06-24T01:50:34;8.90;;;7.68;;
30398;SDS011;17195;50.838;7.214;2023-06-24T01:53:01;8.35;;;7.35;;
30398;SDS011;17195;50.838;7.214;2023-06-24T01:55:30;9.63;;;7.15;;
30398;SDS011;17195;50.838;7.214;2023-06-24T01:57:58;8.85;;;6.80;;
30398;SDS011;17195;50.838;7.214;2023-06-24T02:00:27;8.93;;;6.53;;
30398;SDS011;17195;50.838;7.214;2023-06-24T02:02:53;7.80;;;6.80;;
30398;SDS011;17195;50.838;7.214;2023-06-24T02:05:20;8.35;;;6.43;;
30398;SDS011;17195;50.838;7.214;2023-06-24T02:07:46;11.38;;;7.82;;
30398;SDS011;17195;50.838;7.214;2023-06-24T02:10:14;9.10;;;7.90;;
30398;SDS011;17195;50.838;7.214;2023-06-24T02:12:41;8.32;;;6.80;;
30398;SDS011;17195;50.838;7.214;2023-06-24T02:15:08;7.85;;;7.05;;
30398;SDS011;17195;50.838;7.214;2023-06-24T02:17:35;7.78;;;6.60;;
30398;SDS011;17195;50.838;7.214;2023-06-24T02:20:04;8.77;;;7.00;;
30398;SDS011;17195;50.838;7.214;2023-06-24T02:22:35;9.57;;;7.65;;
30398;SDS011;17195;50.838;7.214;2023-06-24T02:25:03;8.18;;;7.18;;
30398;SDS011;17195;50.838;7.214;2023-06-24T02:27:30;9.43;;;7.35;;
30398;SDS011;17195;50.838;7.214;2023-06-24T02:29:57;8.05;;;7.05;;
30398;SDS011;17195;50.838;7.214;2023-06-24T02:32:24;9.13;;;7.40;;
30398;SDS011;17195;50.838;7.214;2023-06-24T02:34:50;7.70;;;7.00;;
30398;SDS011;17195;50.838;7.214;2023-06-24T02:37:16;7.78;;;7.07;;
30398;SDS011;17195;50.838;7.214;2023-06-24T02:39:41;8.43;;;7.63;;
30398;SDS011;17195;50.838;7.214;2023-06-24T02:42:10;8.63;;;6.90;;
30398;SDS011;17195;50.838;7.214;2023-06-24T02:44:36;7.60;;;6.90;;
30398;SDS011;17195;50.838;7.214;2023-06-24T02:47:05;10.25;;;7.20;;
30398;SDS011;17195;50.838;7.214;2023-06-24T02:49:33;9.82;;;7.57;;
30398;SDS011;17195;50.838;7.214;2023-06-24T02:52:00;7.93;;;7.13;;
30398;SDS011;17195;50.838;7.214;2023-06-24T02:54:25;7.93;;;7.15;;
30398;SDS011;17195;50.838;7.214;2023-06-24T02:56:51;7.60;;;6.90;;
30398;SDS011;17195;50.838;7.214;2023-06-24T02:59:17;8.18;;;6.95;;
30398;SDS011;17195;50.838;7.214;2023-06-24T03:01:47;8.38;;;7.50;;
30398;SDS011;17195;50.838;7.214;2023-06-24T03:04:12;8.43;;;7.53;;
30398;SDS011;17195;50.838;7.214;2023-06-24T03:06:38;7.60;;;6.90;;
30398;SDS011;17195;50.838;7.214;2023-06-24T03:09:05;7.57;;;6.63;;
30398;SDS011;17195;50.838;7.214;2023-06-24T03:11:32;10.10;;;7.35;;
30398;SDS011;17195;50.838;7.214;2023-06-24T03:14:05;8.15;;;7.03;;
30398;SDS011;17195;50.838;7.214;2023-06-24T03:16:31;8.15;;;7.38;;
30398;SDS011;17195;50.838;7.214;2023-06-24T03:18:57;9.48;;;7.22;;
30398;SDS011;17195;50.838;7.214;2023-06-24T03:21:22;8.68;;;7.88;;
30398;SDS011;17195;50.838;7.214;2023-06-24T03:23:53;8.82;;;7.90;;
30398;SDS011;17195;50.838;7.214;2023-06-24T03:26:19;9.45;;;8.55;;
30398;SDS011;17195;50.838;7.214;2023-06-24T03:28:44;9.90;;;8.25;;
30398;SDS011;17195;50.838;7.214;2023-06-24T03:31:10;10.05;;;8.05;;
30398;SDS011;17195;50.838;7.214;2023-06-24T03:33:35;10.60;;;7.55;;
30398;SDS011;17195;50.838;7.214;2023-06-24T03:36:01;8.27;;;7.05;;
30398;SDS011;17195;50.838;7.214;2023-06-24T03:38:27;7.78;;;6.80;;
30398;SDS011;17195;50.838;7.214;2023-06-24T03:40:53;9.23;;;6.80;;
30398;SDS011;17195;50.838;7.214;2023-06-24T03:43:18;10.77;;;7.32;;
30398;SDS011;17195;50.838;7.214;2023-06-24T03:45:44;10.10;;;7.00;;
30398;SDS011;17195;50.838;7.214;2023-06-24T03:48:09;7.80;;;6.95;;
30398;SDS011;17195;50.838;7.214;2023-06-24T03:50:35;8.63;;;7.38;;
30398;SDS011;17195;50.838;7.214;2023-06-24T03:53:01;10.77;;;7.70;;
30398;SDS011;17195;50.838;7.214;2023-06-24T03:55:27;7.93;;;7.13;;
30398;SDS011;17195;50.838;7.214;2023-06-24T03:57:53;7.65;;;6.95;;
30398;SDS011;17195;50.838;7.214;2023-06-24T04:00:18;10.07;;;7.72;;
30398;SDS011;17195;50.838;7.214;2023-06-24T04:02:46;8.25;;;7.45;;
30398;SDS011;17195;50.838;7.214;2023-06-24T04:05:11;9.57;;;7.05;;
30398;SDS011;17195;50.838;7.214;2023-06-24T04:07:37;7.88;;;7.10;;
30398;SDS011;17195;50.838;7.214;2023-06-24T04:10:03;7.20;;;6.50;;
30398;SDS011;17195;50.838;7.214;2023-06-24T04:12:33;7.68;;;6.80;;
30398;SDS011;17195;50.838;7.214;2023-06-24T04:15:02;6.88;;;6.18;;
30398;SDS011;17195;50.838;7.214;2023-06-24T04:17:29;8.63;;;6.53;;
30398;SDS011;17195;50.838;7.214;2023-06-24T04:19:54;8.48;;;6.80;;
30398;SDS011;17195;50.838;7.214;2023-06-24T04:22:20;8.02;;;7.22;;
30398;SDS011;17195;50.838;7.214;2023-06-24T04:24:46;10.50;;;7.45;;
30398;SDS011;17195;50.838;7.214;2023-06-24T04:27:11;12.38;;;7.32;;
30398;SDS011;17195;50.838;7.214;2023-06-24T04:29:37;7.82;;;7.03;;
30398;SDS011;17195;50.838;7.214;2023-06-24T04:32:02;10.38;;;7.60;;
30398;SDS011;17195;50.838;7.214;2023-06-24T04:34:28;8.10;;;7.40;;
30398;SDS011;17195;50.838;7.214;2023-06-24T04:36:54;10.38;;;8.23;;
30398;SDS011;17195;50.838;7.214;2023-06-24T04:39:19;12.25;;;8.02;;
30398;SDS011;17195;50.838;7.214;2023-06-24T04:41:45;8.23;;;6.95;;
30398;SDS011;17195;50.838;7.214;2023-06-24T04:44:12;7.15;;;6.55;;
30398;SDS011;17195;50.838;7.214;2023-06-24T04:46:37;7.53;;;6.78;;
30398;SDS011;17195;50.838;7.214;2023-06-24T04:49:04;6.63;;;6.03;;
30398;SDS011;17195;50.838;7.214;2023-06-24T04:51:30;8.95;;;6.88;;
30398;SDS011;17195;50.838;7.214;2023-06-24T04:53:56;7.82;;;6.85;;
30398;SDS011;17195;50.838;7.214;2023-06-24T04:56:22;7.40;;;6.68;;
30398;SDS011;17195;50.838;7.214;2023-06-24T04:58:48;13.02;;;7.60;;
30398;SDS011;17195;50.838;7.214;2023-06-24T05:01:13;8.73;;;7.63;;
30398;SDS011;17195;50.838;7.214;2023-06-24T05:03:39;9.20;;;7.97;;
30398;SDS011;17195;50.838;7.214;2023-06-24T05:06:04;10.18;;;7.90;;
30398;SDS011;17195;50.838;7.214;2023-06-24T05:08:30;7.95;;;7.18;;
30398;SDS011;17195;50.838;7.214;2023-06-24T05:10:55;10.98;;;7.95;;
30398;SDS011;17195;50.838;7.214;2023-06-24T05:13:21;8.75;;;7.22;;
30398;SDS011;17195;50.838;7.214;2023-06-24T05:15:47;9.15;;;8.00;;
30398;SDS011;17195;50.838;7.214;2023-06-24T05:18:13;9.90;;;7.75;;
30398;SDS011;17195;50.838;7.214;2023-06-24T05:20:38;8.77;;;7.40;;
30398;SDS011;17195;50.838;7.214;2023-06-24T05:23:04;7.55;;;6.78;;
30398;SDS011;17195;50.838;7.214;2023-06-24T05:25:29;7.95;;;6.55;;
30398;SDS011;17195;50.838;7.214;2023-06-24T05:27:55;8.63;;;7.63;;
30398;SDS011;17195;50.838;7.214;2023-06-24T05:30:20;8.50;;;7.22;;
30398;SDS011;17195;50.838;7.214;2023-06-24T05:32:46;8.98;;;6.22;;
30398;SDS011;17195;50.838;7.214;2023-06-24T05:35:11;7.88;;;6.78;;
30398;SDS011;17195;50.838;7.214;2023-06-24T05:37:37;8.95;;;8.05;;
30398;SDS011;17195;50.838;7.214;2023-06-24T05:40:03;9.13;;;7.40;;
30398;SDS011;17195;50.838;7.214;2023-06-24T05:42:30;9.57;;;7.03;;
30398;SDS011;17195;50.838;7.214;2023-06-24T05:44:55;7.80;;;6.40;;
30398;SDS011;17195;50.838;7.214;2023-06-24T05:47:21;7.88;;;6.38;;
30398;SDS011;17195;50.838;7.214;2023-06-24T05:49:46;9.75;;;6.85;;
30398;SDS011;17195;50.838;7.214;2023-06-24T05:52:12;7.55;;;6.70;;
30398;SDS011;17195;50.838;7.214;2023-06-24T05:54:37;7.75;;;6.90;;
30398;SDS011;17195;50.838;7.214;2023-06-24T05:57:03;7.20;;;6.50;;
30398;SDS011;17195;50.838;7.214;2023-06-24T05:59:31;8.95;;;7.07;;
30398;SDS011;17195;50.838;7.214;2023-06-24T06:01:57;6.80;;;6.20;;
30398;SDS011;17195;50.838;7.214;2023-06-24T06:04:23;8.48;;;6.63;;
30398;SDS011;17195;50.838;7.214;2023-06-24T06:06:48;9.00;;;6.85;;
30398;SDS011;17195;50.838;7.214;2023-06-24T06:09:14;8.45;;;6.60;;
30398;SDS011;17195;50.838;7.214;2023-06-24T06:11:39;10.07;;;6.93;;
30398;SDS011;17195;50.838;7.214;2023-06-24T06:14:05;8.25;;;7.50;;
30398;SDS011;17195;50.838;7.214;2023-06-24T06:16:30;8.32;;;7.05;;
30398;SDS011;17195;50.838;7.214;2023-06-24T06:18:56;10.48;;;8.35;;
30398;SDS011;17195;50.838;7.214;2023-06-24T06:21:22;9.82;;;6.75;;
30398;SDS011;17195;50.838;7.214;2023-06-24T06:23:47;8.40;;;7.13;;
30398;SDS011;17195;50.838;7.214;2023-06-24T06:26:13;8.55;;;7.00;;
30398;SDS011;17195;50.838;7.214;2023-06-24T06:28:39;7.35;;;6.50;;
30398;SDS011;17195;50.838;7.214;2023-06-24T06:31:05;9.95;;;7.45;;
30398;SDS011;17195;50.838;7.214;2023-06-24T06:33:31;8.90;;;6.38;;
30398;SDS011;17195;50.838;7.214;2023-06-24T06:35:56;7.32;;;6.50;;
30398;SDS011;17195;50.838;7.214;2023-06-24T06:38:22;11.25;;;7.07;;
30398;SDS011;17195;50.838;7.214;2023-06-24T06:40:47;12.13;;;7.35;;
30398;SDS011;17195;50.838;7.214;2023-06-24T06:43:13;8.45;;;6.80;;
30398;SDS011;17195;50.838;7.214;2023-06-24T06:45:38;15.45;;;7.30;;
30398;SDS011;17195;50.838;7.214;2023-06-24T06:48:05;7.75;;;6.80;;
30398;SDS011;17195;50.838;7.214;2023-06-24T06:50:32;8.52;;;6.55;;
30398;SDS011;17195;50.838;7.214;2023-06-24T06:52:58;7.57;;;6.65;;
30398;SDS011;17195;50.838;7.214;2023-06-24T06:55:24;6.93;;;6.25;;
30398;SDS011;17195;50.838;7.214;2023-06-24T06:57:50;7.53;;;6.30;;
30398;SDS011;17195;50.838;7.214;2023-06-24T07:00:15;10.98;;;6.45;;
30398;SDS011;17195;50.838;7.214;2023-06-24T07:02:41;10.75;;;6.97;;
30398;SDS011;17195;50.838;7.214;2023-06-24T07:05:07;7.03;;;6.32;;
30398;SDS011;17195;50.838;7.214;2023-06-24T07:07:36;8.13;;;6.20;;
30398;SDS011;17195;50.838;7.214;2023-06-24T07:10:04;8.95;;;7.47;;
30398;SDS011;17195;50.838;7.214;2023-06-24T07:12:30;9.55;;;7.18;;
30398;SDS011;17195;50.838;7.214;2023-06-24T07:14:56;8.52;;;7.15;;
30398;SDS011;17195;50.838;7.214;2023-06-24T07:17:22;9.25;;;7.97;;
30398;SDS011;17195;50.838;7.214;2023-06-24T07:19:47;16.40;;;8.27;;
30398;SDS011;17195;50.838;7.214;2023-06-24T07:22:13;9.32;;;8.00;;
30398;SDS011;17195;50.838;7.214;2023-06-24T07:24:39;11.43;;;8.40;;
30398;SDS011;17195;50.838;7.214;2023-06-24T07:27:05;11.40;;;7.95;;
30398;SDS011;17195;50.838;7.214;2023-06-24T07:29:30;10.60;;;8.68;;
30398;SDS011;17195;50.838;7.214;2023-06-24T07:31:56;15.82;;;8.80;;
30398;SDS011;17195;50.838;7.214;2023-06-24T07:34:22;10.80;;;8.52;;
30398;SDS011;17195;50.838;7.214;2023-06-24T07:36:47;11.40;;;8.05;;
30398;SDS011;17195;50.838;7.214;2023-06-24T07:39:15;11.35;;;7.32;;
30398;SDS011;17195;50.838;7.214;2023-06-24T07:41:41;8.25;;;7.25;;
30398;SDS011;17195;50.838;7.214;2023-06-24T07:44:07;9.40;;;7.60;;
30398;SDS011;17195;50.838;7.214;2023-06-24T07:46:33;9.07;;;7.63;;
30398;SDS011;17195;50.838;7.214;2023-06-24T07:48:59;11.60;;;7.82;;
30398;SDS011;17195;50.838;7.214;2023-06-24T07:51:25;8.52;;;7.22;;
30398;SDS011;17195;50.838;7.214;2023-06-24T07:53:50;7.65;;;6.25;;
30398;SDS011;17195;50.838;7.214;2023-06-24T07:56:16;8.60;;;7.25;;
30398;SDS011;17195;50.838;7.214;2023-06-24T07:58:41;8.85;;;7.35;;
30398;SDS011;17195;50.838;7.214;2023-06-24T08:01:07;8.68;;;6.82;;
30398;SDS011;17195;50.838;7.214;2023-06-24T08:03:33;10.13;;;7.03;;
30398;SDS011;17195;50.838;7.214;2023-06-24T08:05:59;11.65;;;7.45;;
30398;SDS011;17195;50.838;7.214;2023-06-24T08:08:25;8.68;;;6.45;;
30398;SDS011;17195;50.838;7.214;2023-06-24T08:10:50;8.60;;;7.15;;
30398;SDS011;17195;50.838;7.214;2023-06-24T08:13:16;8.10;;;6.40;;
30398;SDS011;17195;50.838;7.214;2023-06-24T08:15:41;11.35;;;8.30;;
30398;SDS011;17195;50.838;7.214;2023-06-24T08:18:07;9.65;;;7.10;;
30398;SDS011;17195;50.838;7.214;2023-06-24T08:20:32;9.93;;;7.93;;
30398;SDS011;17195;50.838;7.214;2023-06-24T08:22:58;9.40;;;7.13;;
30398;SDS011;17195;50.838;7.214;2023-06-24T08:25:23;9.35;;;6.55;;
30398;SDS011;17195;50.838;7.214;2023-06-24T08:27:49;10.48;;;9.07;;
30398;SDS011;17195;50.838;7.214;2023-06-24T08:30:14;17.85;;;10.18;;
30398;SDS011;17195;50.838;7.214;2023-06-24T08:32:40;13.98;;;9.00;;
30398;SDS011;17195;50.838;7.214;2023-06-24T08:35:06;11.57;;;8.18;;
30398;SDS011;17195;50.838;7.214;2023-06-24T08:37:33;13.32;;;8.65;;
30398;SDS011;17195;50.838;7.214;2023-06-24T08:39:59;10.93;;;8.77;;
30398;SDS011;17195;50.838;7.214;2023-06-24T08:42:25;15.18;;;8.32;;
30398;SDS011;17195;50.838;7.214;2023-06-24T08:44:50;10.57;;;7.97;;
30398;SDS011;17195;50.838;7.214;2023-06-24T08:47:16;15.70;;;8.65;;
30398;SDS011;17195;50.838;7.214;2023-06-24T08:49:44;13.80;;;8.48;;
30398;SDS011;17195;50.838;7.214;2023-06-24T08:52:14;11.40;;;8.60;;
30398;SDS011;17195;50.838;7.214;2023-06-24T08:54:41;9.55;;;8.50;;
30398;SDS011;17195;50.838;7.214;2023-06-24T08:57:10;12.07;;;8.38;;
30398;SDS011;17195;50.838;7.214;2023-06-24T08:59:39;11.20;;;7.55;;
30398;SDS011;17195;50.838;7.214;2023-06-24T09:02:06;9.88;;;8.18;;
30398;SDS011;17195;50.838;7.214;2023-06-24T09:04:31;10.85;;;7.68;;
30398;SDS011;17195;50.838;7.214;2023-06-24T09:06:57;9.93;;;7.63;;
30398;SDS011;17195;50.838;7.214;2023-06-24T09:09:23;12.57;;;8.25;;
30398;SDS011;17195;50.838;7.214;2023-06-24T09:11:52;10.10;;;6.57;;
30398;SDS011;17195;50.838;7.214;2023-06-24T09:14:18;9.27;;;6.82;;
30398;SDS011;17195;50.838;7.214;2023-06-24T09:17:18;7.72;;;6.40;;
30398;SDS011;17195;50.838;7.214;2023-06-24T09:19:36;10.75;;;7.47;;
30398;SDS011;17195;50.838;7.214;2023-06-24T09:22:02;9.25;;;6.63;;
30398;SDS011;17195;50.838;7.214;2023-06-24T09:24:35;13.45;;;7.05;;
30398;SDS011;17195;50.838;7.214;2023-06-24T09:27:02;7.75;;;6.93;;
30398;SDS011;17195;50.838;7.214;2023-06-24T09:29:31;7.72;;;5.97;;
30398;SDS011;17195;50.838;7.214;2023-06-24T09:31:57;15.13;;;7.20;;
30398;SDS011;17195;50.838;7.214;2023-06-24T09:34:28;9.10;;;7.30;;
30398;SDS011;17195;50.838;7.214;2023-06-24T09:36:54;9.63;;;6.10;;
30398;SDS011;17195;50.838;7.214;2023-06-24T09:39:24;9.40;;;6.97;;
30398;SDS011;17195;50.838;7.214;2023-06-24T09:41:57;12.07;;;7.10;;
30398;SDS011;17195;50.838;7.214;2023-06-24T09:44:25;9.25;;;6.93;;
30398;SDS011;17195;50.838;7.214;2023-06-24T09:46:52;8.63;;;6.97;;
30398;SDS011;17195;50.838;7.214;2023-06-24T09:49:18;9.30;;;6.30;;
30398;SDS011;17195;50.838;7.214;2023-06-24T09:51:47;10.35;;;6.38;;
30398;SDS011;17195;50.838;7.214;2023-06-24T09:54:15;7.68;;;6.10;;
30398;SDS011;17195;50.838;7.214;2023-06-24T09:56:49;7.47;;;5.38;;
30398;SDS011;17195;50.838;7.214;2023-06-24T09:59:17;8.60;;;5.70;;
30398;SDS011;17195;50.838;7.214;2023-06-24T10:01:48;8.35;;;5.10;;
30398;SDS011;17195;50.838;7.214;2023-06-24T10:04:16;7.30;;;6.30;;
30398;SDS011;17195;50.838;7.214;2023-06-24T10:06:44;7.15;;;5.20;;
30398;SDS011;17195;50.838;7.214;2023-06-24T10:09:09;11.10;;;5.68;;
30398;SDS011;17195;50.838;7.214;2023-06-24T10:11:38;7.97;;;5.03;;
30398;SDS011;17195;50.838;7.214;2023-06-24T10:14:04;5.80;;;5.18;;
30398;SDS011;17195;50.838;7.214;2023-06-24T10:16:29;4.90;;;4.40;;
30398;SDS011;17195;50.838;7.214;2023-06-24T10:19:01;6.82;;;4.50;;
30398;SDS011;17195;50.838;7.214;2023-06-24T10:21:43;6.80;;;4.65;;
30398;SDS011;17195;50.838;7.214;2023-06-24T10:24:13;6.75;;;4.72;;
30398;SDS011;17195;50.838;7.214;2023-06-24T10:27:01;5.40;;;4.50;;
30398;SDS011;17195;50.838;7.214;2023-06-24T10:29:32;7.00;;;5.20;;
30398;SDS011;17195;50.838;7.214;2023-06-24T10:34:38;5.70;;;4.35;;
30398;SDS011;17195;50.838;7.214;2023-06-24T10:37:08;6.70;;;4.30;;
30398;SDS011;17195;50.838;7.214;2023-06-24T10:39:34;4.97;;;4.47;;
30398;SDS011;17195;50.838;7.214;2023-06-24T10:47:43;6.68;;;4.15;;
30398;SDS011;17195;50.838;7.214;2023-06-24T10:50:18;4.35;;;3.58;;
30398;SDS011;17195;50.838;7.214;2023-06-24T10:52:46;6.05;;;4.45;;
30398;SDS011;17195;50.838;7.214;2023-06-24T10:55:13;7.90;;;4.60;;
30398;SDS011;17195;50.838;7.214;2023-06-24T10:57:40;6.25;;;3.85;;
30398;SDS011;17195;50.838;7.214;2023-06-24T11:00:06;5.53;;;4.10;;
30398;SDS011;17195;50.838;7.214;2023-06-24T11:02:33;5.38;;;4.03;;
30398;SDS011;17195;50.838;7.214;2023-06-24T11:04:59;4.28;;;3.88;;
30398;SDS011;17195;50.838;7.214;2023-06-24T11:07:30;5.25;;;4.07;;
30398;SDS011;17195;50.838;7.214;2023-06-24T11:10:01;5.95;;;4.20;;
30398;SDS011;17195;50.838;7.214;2023-06-24T11:12:35;4.60;;;3.60;;
30398;SDS011;17195;50.838;7.214;2023-06-24T11:15:03;6.10;;;4.20;;
30398;SDS011;17195;50.838;7.214;2023-06-24T11:17:29;6.90;;;4.20;;
30398;SDS011;17195;50.838;7.214;2023-06-24T11:19:56;7.07;;;3.90;;
30398;SDS011;17195;50.838;7.214;2023-06-24T11:22:22;5.25;;;3.65;;
30398;SDS011;17195;50.838;7.214;2023-06-24T11:24:49;9.00;;;5.70;;
30398;SDS011;17195;50.838;7.214;2023-06-24T11:27:15;5.45;;;4.18;;
30398;SDS011;17195;50.838;7.214;2023-06-24T11:29:41;10.30;;;4.40;;
30398;SDS011;17195;50.838;7.214;2023-06-24T11:32:07;7.30;;;4.43;;
30398;SDS011;17195;50.838;7.214;2023-06-24T11:34:34;4.85;;;4.22;;
30398;SDS011;17195;50.838;7.214;2023-06-24T11:37:10;7.38;;;4.80;;
30398;SDS011;17195;50.838;7.214;2023-06-24T11:39:37;6.80;;;5.10;;
30398;SDS011;17195;50.838;7.214;2023-06-24T11:42:02;5.18;;;4.57;;
30398;SDS011;17195;50.838;7.214;2023-06-24T11:44:31;6.50;;;4.25;;
30398;SDS011;17195;50.838;7.214;2023-06-24T11:47:06;7.68;;;4.43;;
30398;SDS011;17195;50.838;7.214;2023-06-24T11:49:47;5.68;;;4.43;;
30398;SDS011;17195;50.838;7.214;2023-06-24T11:52:32;4.95;;;4.43;;
30398;SDS011;17195;50.838;7.214;2023-06-24T11:55:02;6.90;;;5.07;;
30398;SDS011;17195;50.838;7.214;2023-06-24T12:00:25;5.32;;;4.32;;
30398;SDS011;17195;50.838;7.214;2023-06-24T12:02:55;5.00;;;4.47;;
30398;SDS011;17195;50.838;7.214;2023-06-24T12:05:23;7.80;;;4.50;;
30398;SDS011;17195;50.838;7.214;2023-06-24T12:07:54;5.03;;;4.53;;
30398;SDS011;17195;50.838;7.214;2023-06-24T12:10:23;5.53;;;4.13;;
30398;SDS011;17195;50.838;7.214;2023-06-24T12:12:49;8.65;;;4.07;;
30398;SDS011;17195;50.838;7.214;2023-06-24T12:15:15;5.57;;;4.10;;
30398;SDS011;17195;50.838;7.214;2023-06-24T12:17:41;7.13;;;3.53;;
30398;SDS011;17195;50.838;7.214;2023-06-24T12:20:06;8.18;;;4.13;;
30398;SDS011;17195;50.838;7.214;2023-06-24T12:22:32;5.25;;;4.30;;
30398;SDS011;17195;50.838;7.214;2023-06-24T12:24:58;6.30;;;4.22;;
30398;SDS011;17195;50.838;7.214;2023-06-24T12:27:23;6.45;;;4.07;;
30398;SDS011;17195;50.838;7.214;2023-06-24T12:29:49;4.68;;;3.90;;
30398;SDS011;17195;50.838;7.214;2023-06-24T12:32:14;5.88;;;4.15;;
30398;SDS011;17195;50.838;7.214;2023-06-24T12:34:40;4.00;;;3.25;;
30398;SDS011;17195;50.838;7.214;2023-06-24T12:37:05;5.60;;;3.85;;
30398;SDS011;17195;50.838;7.214;2023-06-24T12:39:31;4.65;;;4.05;;
30398;SDS011;17195;50.838;7.214;2023-06-24T12:41:57;4.38;;;3.80;;
30398;SDS011;17195;50.838;7.214;2023-06-24T12:44:22;3.50;;;3.20;;
30398;SDS011;17195;50.838;7.214;2023-06-24T12:46:47;6.03;;;4.13;;
30398;SDS011;17195;50.838;7.214;2023-06-24T12:49:13;6.72;;;5.82;;
30398;SDS011;17195;50.838;7.214;2023-06-24T12:51:39;5.43;;;4.05;;
30398;SDS011;17195;50.838;7.214;2023-06-24T12:54:04;6.05;;;3.45;;
30398;SDS011;17195;50.838;7.214;2023-06-24T12:56:30;5.50;;;3.75;;
30398;SDS011;17195;50.838;7.214;2023-06-24T12:58:55;6.22;;;3.63;;
30398;SDS011;17195;50.838;7.214;2023-06-24T13:01:21;8.48;;;3.70;;
30398;SDS011;17195;50.838;7.214;2023-06-24T13:03:46;4.18;;;3.58;;
30398;SDS011;17195;50.838;7.214;2023-06-24T13:06:12;4.43;;;4.00;;
30398;SDS011;17195;50.838;7.214;2023-06-24T13:08:39;4.50;;;3.70;;
30398;SDS011;17195;50.838;7.214;2023-06-24T13:11:04;4.20;;;3.35;;
30398;SDS011;17195;50.838;7.214;2023-06-24T13:13:30;5.65;;;3.35;;
30398;SDS011;17195;50.838;7.214;2023-06-24T13:15:55;4.10;;;3.42;;
30398;SDS011;17195;50.838;7.214;2023-06-24T13:18:21;3.67;;;3.38;;
30398;SDS011;17195;50.838;7.214;2023-06-24T13:20:46;5.07;;;4.57;;
30398;SDS011;17195;50.838;7.214;2023-06-24T13:23:12;5.30;;;3.80;;
30398;SDS011;17195;50.838;7.214;2023-06-24T13:25:37;5.93;;;3.50;;
30398;SDS011;17195;50.838;7.214;2023-06-24T13:28:03;4.10;;;3.65;;
30398;SDS011;17195;50.838;7.214;2023-06-24T13:30:28;4.05;;;3.65;;
30398;SDS011;17195;50.838;7.214;2023-06-24T13:32:54;5.25;;;3.47;;
30398;SDS011;17195;50.838;7.214;2023-06-24T13:35:19;5.43;;;3.92;;
30398;SDS011;17195;50.838;7.214;2023-06-24T13:37:45;4.13;;;3.50;;
30398;SDS011;17195;50.838;7.214;2023-06-24T13:40:11;5.88;;;3.85;;
30398;SDS011;17195;50.838;7.214;2023-06-24T13:42:36;5.18;;;3.47;;
30398;SDS011;17195;50.838;7.214;2023-06-24T13:45:02;6.72;;;3.92;;
30398;SDS011;17195;50.838;7.214;2023-06-24T13:47:28;4.38;;;3.65;;
30398;SDS011;17195;50.838;7.214;2023-06-24T13:49:54;3.70;;;3.40;;
30398;SDS011;17195;50.838;7.214;2023-06-24T13:52:19;5.35;;;3.67;;
30398;SDS011;17195;50.838;7.214;2023-06-24T13:54:46;4.28;;;3.63;;
30398;SDS011;17195;50.838;7.214;2023-06-24T13:57:11;4.97;;;4.05;;
30398;SDS011;17195;50.838;7.214;2023-06-24T13:59:37;3.78;;;3.30;;
30398;SDS011;17195;50.838;7.214;2023-06-24T14:02:03;4.47;;;3.67;;
30398;SDS011;17195;50.838;7.214;2023-06-24T14:04:30;3.25;;;2.95;;
30398;SDS011;17195;50.838;7.214;2023-06-24T14:06:55;4.03;;;3.53;;
30398;SDS011;17195;50.838;7.214;2023-06-24T14:09:21;3.38;;;3.10;;
30398;SDS011;17195;50.838;7.214;2023-06-24T14:11:46;5.10;;;3.53;;
30398;SDS011;17195;50.838;7.214;2023-06-24T14:14:12;4.97;;;3.80;;
30398;SDS011;17195;50.838;7.214;2023-06-24T14:16:38;5.22;;;4.07;;
30398;SDS011;17195;50.838;7.214;2023-06-24T14:19:03;3.95;;;3.50;;
30398;SDS011;17195;50.838;7.214;2023-06-24T14:21:29;5.60;;;3.45;;
30398;SDS011;17195;50.838;7.214;2023-06-24T14:23:56;4.25;;;3.50;;
30398;SDS011;17195;50.838;7.214;2023-06-24T14:26:22;6.15;;;4.38;;
30398;SDS011;17195;50.838;7.214;2023-06-24T14:28:48;3.63;;;3.15;;
30398;SDS011;17195;50.838;7.214;2023-06-24T14:31:13;3.72;;;3.40;;
30398;SDS011;17195;50.838;7.214;2023-06-24T14:33:39;3.80;;;3.25;;
30398;SDS011;17195;50.838;7.214;2023-06-24T14:36:04;5.53;;;3.58;;
30398;SDS011;17195;50.838;7.214;2023-06-24T14:38:30;6.05;;;3.75;;
30398;SDS011;17195;50.838;7.214;2023-06-24T14:40:56;4.15;;;3.67;;
30398;SDS011;17195;50.838;7.214;2023-06-24T14:43:22;7.55;;;4.82;;
30398;SDS011;17195;50.838;7.214;2023-06-24T14:45:47;4.55;;;3.47;;
30398;SDS011;17195;50.838;7.214;2023-06-24T14:48:13;3.78;;;3.17;;
30398;SDS011;17195;50.838;7.214;2023-06-24T14:50:38;5.82;;;3.63;;
30398;SDS011;17195;50.838;7.214;2023-06-24T14:53:04;5.57;;;3.92;;
30398;SDS011;17195;50.838;7.214;2023-06-24T14:55:30;8.63;;;3.40;;
30398;SDS011;17195;50.838;7.214;2023-06-24T14:57:56;4.40;;;3.30;;
30398;SDS011;17195;50.838;7.214;2023-06-24T15:00:22;5.45;;;3.13;;
30398;SDS011;17195;50.838;7.214;2023-06-24T15:02:47;4.00;;;3.60;;